Time;durP1;ratioP1;P1;durP2;ratioP2;P2;SDS_P1;SDS_P2;PMS_P1;PMS_P2;Temp;Humidity;BMP_temperature;BMP_pressure;BME280_temperature;BME280_humidity;BME280_pressure;Samples;Min_cycle;Max_cycle;Signal;HPM_P1;HPM_P2
2021/12/05 00:22:33;;;;;;;22.17;10.13;;;4.10;99.90;;;;;;4971617;28;20078;-86
2021/12/05 00:25:01;;;;;;;21.13;9.63;;;3.20;99.90;;;;;;4971076;28;20041;-86
2021/12/05 00:27:35;;;;;;;19.08;8.73;;;3.20;99.90;;;;;;4955387;28;20151;-86
2021/12/05 00:46:16;;;;;;;22.27;8.65;;;3.20;99.90;;;;;;4969469;28;20055;-86
2021/12/05 00:58:36;;;;;;;18.00;7.93;;;4.30;99.90;;;;;;4953618;28;20194;-86
2021/12/05 01:03:08;;;;;;;17.38;7.38;;;4.10;99.90;;;;;;4971194;28;20460;-86
2021/12/05 01:11:15;;;;;;;20.95;7.75;;;3.20;99.90;;;;;;4970557;28;20075;-86
2021/12/05 01:13:58;;;;;;;16.27;7.20;;;3.20;99.90;;;;;;4954976;28;20057;-86
2021/12/05 01:16:25;;;;;;;17.25;7.72;;;3.70;99.90;;;;;;4969848;28;20047;-86
2021/12/05 01:18:51;;;;;;;18.48;7.57;;;3.20;99.90;;;;;;4954340;28;20029;-86
2021/12/05 01:21:21;;;;;;;16.67;7.97;;;4.30;99.90;;;;;;4954056;28;20043;-86
2021/12/05 01:23:58;;;;;;;21.85;7.82;;;3.20;99.90;;;;;;4954001;28;20027;-86
2021/12/05 01:26:37;;;;;;;18.92;7.25;;;3.20;99.90;;;;;;4955692;28;20051;-86
2021/12/05 01:37:52;;;;;;;17.92;8.30;;;4.10;99.90;;;;;;4969744;28;20519;-85
2021/12/05 01:39:41;;;;;;;20.70;7.28;;;3.10;99.90;;;;;;4969466;28;20043;-85
2021/12/05 01:58:33;;;;;;;21.88;9.40;;;3.20;99.90;;;;;;4964556;28;20416;-86
2021/12/05 02:12:39;;;;;;;21.70;10.23;;;3.20;99.90;;;;;;4993032;28;20057;-85
2021/12/05 02:32:19;;;;;;;29.63;15.50;;;3.20;99.90;;;;;;4966611;28;20043;-85
2021/12/05 02:38:04;;;;;;;30.35;14.98;;;3.30;99.90;;;;;;4937918;28;20066;-86
2021/12/05 02:45:25;;;;;;;33.92;17.27;;;3.60;99.90;;;;;;4953151;28;20109;-86
2021/12/05 02:47:53;;;;;;;37.70;17.58;;;3.30;99.90;;;;;;4937240;28;20065;-86
2021/12/05 02:50:23;;;;;;;31.42;16.70;;;3.40;99.90;;;;;;4953138;28;20077;-85
2021/12/05 02:52:49;;;;;;;36.00;17.10;;;3.30;99.90;;;;;;4984925;28;20030;-85
2021/12/05 02:55:35;;;;;;;36.17;17.38;;;3.30;99.90;;;;;;4952392;28;20048;-86
2021/12/05 02:58:13;;;;;;;32.55;15.95;;;3.30;99.90;;;;;;4968838;28;20042;-86
2021/12/05 03:00:43;;;;;;;32.45;17.20;;;3.30;99.90;;;;;;4969035;28;20443;-85
2021/12/05 03:03:18;;;;;;;39.30;18.02;;;3.30;99.90;;;;;;4983405;28;20027;-86
2021/12/05 03:05:52;;;;;;;31.95;16.95;;;3.30;99.90;;;;;;4967892;28;20054;-85
2021/12/05 03:08:19;;;;;;;34.75;17.40;;;3.90;99.90;;;;;;4967845;28;20046;-86
2021/12/05 03:10:45;;;;;;;30.30;17.55;;;3.90;99.90;;;;;;4936856;28;20038;-85
2021/12/05 03:13:11;;;;;;;32.72;16.10;;;4.10;99.90;;;;;;4951914;28;20049;-85
2021/12/05 03:15:37;;;;;;;32.88;16.00;;;3.30;99.90;;;;;;4952066;28;20055;-86
2021/12/05 03:18:04;;;;;;;29.13;16.85;;;3.30;99.90;;;;;;4936440;28;20042;-85
2021/12/05 03:20:30;;;;;;;28.85;14.93;;;3.30;99.90;;;;;;4952315;28;20061;-85
2021/12/05 03:22:56;;;;;;;32.05;14.30;;;3.30;99.90;;;;;;4936015;28;20051;-85
2021/12/05 03:25:22;;;;;;;31.27;14.35;;;3.30;99.90;;;;;;4952334;28;20043;-86
2021/12/05 03:27:48;;;;;;;25.27;12.90;;;3.30;99.90;;;;;;4968395;28;20039;-86
2021/12/05 03:30:20;;;;;;;30.35;14.18;;;3.40;99.90;;;;;;4952585;28;20050;-86
2021/12/05 03:32:48;;;;;;;35.60;14.48;;;3.30;99.90;;;;;;4949899;28;20034;-85
2021/12/05 03:35:14;;;;;;;31.48;13.43;;;3.30;99.90;;;;;;4968393;28;20049;-85
2021/12/05 03:37:40;;;;;;;27.27;12.18;;;3.30;99.90;;;;;;4936730;28;20109;-85
2021/12/05 03:40:07;;;;;;;24.85;10.98;;;3.30;99.90;;;;;;4936158;28;20038;-85
2021/12/05 03:42:34;;;;;;;20.05;10.65;;;3.30;99.90;;;;;;4968343;28;20117;-85
2021/12/05 03:45:01;;;;;;;22.75;11.43;;;4.20;99.90;;;;;;4951630;28;20050;-85
2021/12/05 03:47:28;;;;;;;28.88;12.13;;;4.00;99.90;;;;;;4952658;28;20122;-85
2021/12/05 03:49:55;;;;;;;23.63;10.43;;;3.80;99.90;;;;;;4966916;28;20122;-85
2021/12/05 03:52:21;;;;;;;24.20;10.55;;;3.20;99.90;;;;;;4952490;28;20035;-85
2021/12/05 03:54:47;;;;;;;22.85;10.40;;;3.20;99.90;;;;;;4935989;28;20049;-85
2021/12/05 03:57:13;;;;;;;22.70;9.98;;;3.10;99.90;;;;;;4966873;28;20039;-85
2021/12/05 03:59:40;;;;;;;20.42;8.98;;;3.20;99.90;;;;;;4952237;28;20063;-84
2021/12/05 04:02:08;;;;;;;27.73;10.43;;;3.70;99.90;;;;;;4951731;28;20050;-84
2021/12/05 04:04:34;;;;;;;14.98;7.53;;;3.10;99.90;;;;;;4965686;28;20046;-85
2021/12/05 04:07:01;;;;;;;16.85;8.23;;;3.10;99.90;;;;;;4951739;28;20412;-84
2021/12/05 04:09:27;;;;;;;18.73;7.72;;;3.10;99.90;;;;;;4935420;28;20110;-85
2021/12/05 04:11:58;;;;;;;21.98;8.52;;;3.00;99.90;;;;;;4935983;28;20047;-84
2021/12/05 04:14:27;;;;;;;20.02;7.20;;;3.10;99.90;;;;;;4951429;28;20062;-84
2021/12/05 04:16:54;;;;;;;19.58;8.00;;;3.00;99.90;;;;;;4968491;28;20057;-84
2021/12/05 04:19:20;;;;;;;20.13;7.82;;;3.00;99.90;;;;;;4951813;28;20453;-85
2021/12/05 04:21:46;;;;;;;19.23;8.00;;;3.00;99.90;;;;;;4952510;28;20400;-84
2021/12/05 04:24:13;;;;;;;18.52;8.30;;;3.70;99.90;;;;;;4935246;28;20043;-84
2021/12/05 04:26:40;;;;;;;18.33;7.22;;;2.90;99.90;;;;;;4950642;28;20039;-84
2021/12/05 04:29:06;;;;;;;16.35;7.95;;;3.10;99.90;;;;;;4952402;28;20042;-84
2021/12/05 04:31:34;;;;;;;17.30;6.80;;;2.90;99.90;;;;;;4935653;28;20547;-85
2021/12/05 04:34:00;;;;;;;15.27;7.05;;;3.10;99.90;;;;;;4954101;28;20046;-84
2021/12/05 04:36:26;;;;;;;19.90;7.32;;;2.80;99.90;;;;;;4939241;28;20038;-84
2021/12/05 04:38:52;;;;;;;21.73;7.55;;;2.90;99.90;;;;;;4955259;28;20046;-85
2021/12/05 04:41:19;;;;;;;14.95;7.40;;;2.80;99.90;;;;;;4922972;28;20130;-84
2021/12/05 04:43:46;;;;;;;18.20;6.97;;;3.20;99.90;;;;;;4939712;28;20096;-84
2021/12/05 04:46:17;;;;;;;19.08;6.55;;;2.70;99.90;;;;;;4923715;28;20438;-84
2021/12/05 04:48:47;;;;;;;19.08;7.90;;;2.70;99.90;;;;;;4953742;28;20042;-84
2021/12/05 04:51:13;;;;;;;14.48;7.47;;;2.60;99.90;;;;;;4971320;28;20030;-84
2021/12/05 04:53:39;;;;;;;18.02;8.05;;;2.70;99.90;;;;;;4952985;28;20042;-84
2021/12/05 04:56:05;;;;;;;19.23;7.65;;;2.60;99.90;;;;;;4939131;28;20456;-84
2021/12/05 04:58:31;;;;;;;26.33;8.68;;;2.60;99.90;;;;;;4971214;28;20045;-84
2021/12/05 05:00:57;;;;;;;16.30;7.03;;;2.60;99.90;;;;;;4936843;28;20039;-84
2021/12/05 05:03:25;;;;;;;18.73;7.32;;;3.20;99.90;;;;;;4954516;28;20053;-84
2021/12/05 05:05:59;;;;;;;20.15;7.47;;;2.50;99.90;;;;;;4954454;28;20035;-84
2021/12/05 05:08:27;;;;;;;19.70;6.78;;;2.50;99.90;;;;;;4954538;28;20641;-84
2021/12/05 05:10:52;;;;;;;16.27;7.63;;;2.50;99.90;;;;;;4938959;28;20768;-84
2021/12/05 05:13:18;;;;;;;17.60;7.88;;;2.50;99.90;;;;;;4938718;28;20038;-84
2021/12/05 05:15:44;;;;;;;17.10;6.90;;;2.60;99.90;;;;;;4970185;28;20051;-83
2021/12/05 05:18:12;;;;;;;16.65;7.25;;;2.60;99.90;;;;;;4938730;28;20118;-83
2021/12/05 05:20:46;;;;;;;17.65;6.90;;;2.60;99.90;;;;;;4954620;28;20097;-84
2021/12/05 05:50:14;;;;;;;22.48;6.97;;;2.50;99.90;;;;;;4969703;28;20049;-84
2021/12/05 05:52:40;;;;;;;24.27;7.63;;;2.50;99.90;;;;;;4938412;28;20070;-83
2021/12/05 05:55:06;;;;;;;20.38;8.10;;;2.70;99.90;;;;;;4937279;28;20070;-83
2021/12/05 05:57:38;;;;;;;20.52;7.60;;;2.50;99.90;;;;;;4953955;28;20031;-83
2021/12/05 06:00:29;;;;;;;15.98;6.60;;;2.50;99.90;;;;;;4968328;28;20047;-83
2021/12/05 06:05:39;;;;;;;29.15;7.25;;;2.50;99.90;;;;;;4968972;28;20054;-83
2021/12/05 06:08:05;;;;;;;15.30;6.38;;;2.70;99.90;;;;;;4953507;28;20113;-83
2021/12/05 06:10:32;;;;;;;17.10;6.55;;;2.50;99.90;;;;;;4951704;28;20038;-83
2021/12/05 06:12:59;;;;;;;17.38;6.68;;;2.60;99.90;;;;;;4953786;28;20038;-83
2021/12/05 06:15:26;;;;;;;21.65;7.28;;;2.50;99.90;;;;;;4969104;28;20057;-83
2021/12/05 06:17:53;;;;;;;22.02;7.80;;;3.40;99.90;;;;;;4969206;28;20066;-83
2021/12/05 06:20:22;;;;;;;20.55;7.63;;;2.40;99.90;;;;;;4953253;28;20046;-83
2021/12/05 06:22:48;;;;;;;21.05;7.68;;;2.40;99.90;;;;;;4952695;28;20034;-84
2021/12/05 06:25:22;;;;;;;16.30;7.68;;;2.40;99.90;;;;;;4953199;28;20085;-84
2021/12/05 06:27:49;;;;;;;26.95;8.23;;;2.40;99.90;;;;;;4968241;28;20490;-84
2021/12/05 06:30:21;;;;;;;23.80;7.80;;;2.40;99.90;;;;;;4969514;28;20452;-83
2021/12/05 06:46:13;;;;;;;17.65;8.65;;;2.50;99.90;;;;;;4968564;28;20045;-84
2021/12/05 06:48:43;;;;;;;31.45;9.68;;;2.50;99.90;;;;;;4953088;28;20039;-83
2021/12/05 06:51:25;;;;;;;22.90;9.73;;;2.50;99.90;;;;;;4953084;28;20500;-83
2021/12/05 06:53:51;;;;;;;20.85;9.73;;;2.50;99.90;;;;;;4954421;28;20113;-83
2021/12/05 06:56:17;;;;;;;23.63;9.15;;;2.60;99.90;;;;;;4968050;28;20042;-84
2021/12/05 06:58:43;;;;;;;21.65;9.00;;;2.60;99.90;;;;;;4936348;28;20514;-84
2021/12/05 07:01:10;;;;;;;36.40;11.13;;;2.60;99.90;;;;;;4936707;28;20488;-84
2021/12/05 07:03:39;;;;;;;23.23;9.02;;;2.60;99.90;;;;;;4968668;28;20042;-84
2021/12/05 07:06:09;;;;;;;28.02;9.75;;;3.00;99.90;;;;;;4953077;28;20039;-84
2021/12/05 07:08:41;;;;;;;26.50;9.32;;;2.70;99.90;;;;;;4953290;28;20035;-84
2021/12/05 07:16:41;;;;;;;25.98;10.93;;;2.80;99.90;;;;;;4954520;28;20089;-84
2021/12/05 07:21:53;;;;;;;20.65;10.25;;;3.00;99.90;;;;;;4953248;28;20564;-83
2021/12/05 07:40:31;;;;;;;24.45;10.75;;;2.90;99.90;;;;;;4965303;28;20117;-84
2021/12/05 07:43:00;;;;;;;25.63;10.68;;;3.30;99.90;;;;;;4965167;28;20050;-84
2021/12/05 07:45:33;;;;;;;26.77;11.23;;;2.90;99.90;;;;;;4972065;28;20023;-84
2021/12/05 07:48:09;;;;;;;20.40;10.18;;;2.90;99.90;;;;;;4977117;28;20031;-84
2021/12/05 07:50:57;;;;;;;22.17;10.23;;;2.90;99.90;;;;;;4959134;28;20079;-84
2021/12/05 07:53:29;;;;;;;26.10;11.93;;;3.00;99.90;;;;;;4959817;28;20078;-83
2021/12/05 07:56:02;;;;;;;;;;;2.90;99.90;;;;;;4941023;28;20543;-84
2021/12/05 07:58:58;;;;;;;23.27;11.15;;;3.40;99.90;;;;;;4953289;28;19925;-89
2021/12/05 08:14:53;;;;;;;23.60;10.18;;;3.50;99.90;;;;;;4957755;28;20055;-85
2021/12/05 08:17:20;;;;;;;31.35;11.00;;;3.00;99.90;;;;;;4971118;28;20046;-85
2021/12/05 08:19:47;;;;;;;22.33;11.02;;;3.70;99.90;;;;;;4939875;28;20117;-85
2021/12/05 08:22:14;;;;;;;23.95;11.38;;;3.00;99.90;;;;;;4955641;28;20609;-85
2021/12/05 08:24:40;;;;;;;27.48;11.23;;;3.10;99.90;;;;;;4970475;28;20115;-85
2021/12/05 08:27:09;;;;;;;24.23;11.27;;;3.50;99.90;;;;;;4971841;28;20050;-85
2021/12/05 08:29:44;;;;;;;20.75;10.63;;;3.80;99.90;;;;;;4955112;28;20034;-85
2021/12/05 08:34:50;;;;;;;27.90;10.50;;;3.50;99.90;;;;;;4968773;28;20057;-85
2021/12/05 08:37:38;;;;;;;25.85;11.00;;;3.20;99.90;;;;;;4939663;28;20057;-84
2021/12/05 08:40:32;;;;;;;21.58;10.52;;;3.20;99.90;;;;;;4969677;28;20051;-85
2021/12/05 08:46:08;;;;;;;21.52;11.63;;;3.30;99.90;;;;;;4954580;28;20419;-84
2021/12/05 09:22:16;;;;;;;24.60;9.80;;;3.30;99.90;;;;;;4968725;28;20049;-84
2021/12/05 09:24:45;;;;;;;17.42;9.02;;;3.30;99.90;;;;;;4957429;28;20127;-84
2021/12/05 10:16:20;;;;;;;14.75;7.13;;;3.90;99.90;;;;;;4970313;28;20070;-82
2021/12/05 10:27:20;;;;;;;13.60;7.18;;;4.00;99.90;;;;;;4941401;28;20474;-81
2021/12/05 10:36:05;;;;;;;18.20;7.72;;;4.00;99.90;;;;;;4970334;28;20073;-83
2021/12/05 10:38:47;;;;;;;21.13;7.43;;;4.10;99.90;;;;;;4968000;28;20105;-83
2021/12/05 10:43:58;;;;;;;;;;;4.10;99.90;;;;;;4970536;28;19922;-81
2021/12/05 10:46:26;;;;;;;15.73;7.28;;;4.10;99.90;;;;;;4953948;28;20362;-80
2021/12/05 10:49:11;;;;;;;12.95;6.63;;;4.20;99.90;;;;;;4969643;28;20035;-80
2021/12/05 10:51:57;;;;;;;13.85;7.15;;;4.20;99.90;;;;;;4953467;28;20571;-79
2021/12/05 10:54:26;;;;;;;20.17;7.05;;;4.20;99.90;;;;;;4967953;28;20053;-79
2021/12/05 10:57:00;;;;;;;13.38;6.93;;;4.60;99.90;;;;;;4967846;28;20516;-78
2021/12/05 10:59:38;;;;;;;11.93;6.35;;;4.30;99.90;;;;;;4947494;28;20039;-92
2021/12/05 11:02:14;;;;;;;11.30;6.90;;;4.30;99.90;;;;;;4951983;28;20042;-78
2021/12/05 11:04:43;;;;;;;17.35;7.00;;;4.30;99.90;;;;;;4951213;28;20039;-79
2021/12/05 11:07:12;;;;;;;13.73;6.53;;;4.40;99.90;;;;;;4950296;28;20114;-79
2021/12/05 11:09:43;;;;;;;12.63;7.22;;;4.40;99.90;;;;;;4958489;28;20035;-78
2021/12/05 11:12:12;;;;;;;13.52;6.93;;;4.40;99.90;;;;;;4948050;28;20034;-78
2021/12/05 11:14:47;;;;;;;10.80;7.00;;;4.40;99.90;;;;;;4947925;28;20047;-78
2021/12/05 11:17:21;;;;;;;12.50;5.68;;;4.40;99.90;;;;;;4951966;28;20054;-78
2021/12/05 11:19:54;;;;;;;13.77;6.32;;;4.40;99.90;;;;;;4948647;28;20047;-78
2021/12/05 11:22:24;;;;;;;10.48;5.82;;;4.40;99.90;;;;;;4949613;28;20400;-78
2021/12/05 11:24:57;;;;;;;13.13;6.10;;;4.40;99.90;;;;;;4946095;28;20102;-78
2021/12/05 11:27:36;;;;;;;10.15;6.20;;;4.50;99.90;;;;;;4967787;28;20528;-78
2021/12/05 11:30:09;;;;;;;13.93;8.63;;;4.50;99.90;;;;;;4951707;28;20039;-78
2021/12/05 11:32:44;;;;;;;62.38;27.70;;;4.60;99.90;;;;;;4948110;28;20031;-78
2021/12/05 11:35:27;;;;;;;16.92;8.98;;;4.60;99.90;;;;;;4962981;28;20131;-78
2021/12/05 11:38:05;;;;;;;12.02;7.28;;;4.70;99.90;;;;;;4946267;28;20501;-78
2021/12/05 11:40:42;;;;;;;9.40;6.05;;;4.70;99.90;;;;;;4959229;28;20622;-78
2021/12/05 11:43:11;;;;;;;10.55;5.97;;;4.80;99.90;;;;;;4945579;28;20062;-78
2021/12/05 11:45:56;;;;;;;7.28;5.03;;;4.80;99.90;;;;;;4955878;28;20053;-78
2021/12/05 11:48:43;;;;;;;10.57;5.85;;;4.70;99.90;;;;;;4971463;28;20070;-78
2021/12/05 11:51:28;;;;;;;8.65;5.43;;;4.80;99.90;;;;;;4965973;28;20526;-78
2021/12/05 11:53:57;;;;;;;10.23;5.25;;;4.80;99.90;;;;;;4967569;28;20050;-78
2021/12/05 11:57:01;;;;;;;6.95;5.57;;;4.80;99.90;;;;;;4954196;28;20463;-78
2021/12/05 11:59:30;;;;;;;9.85;5.47;;;4.80;99.90;;;;;;4954734;28;20551;-78
2021/12/05 12:02:10;;;;;;;8.18;5.00;;;4.90;99.90;;;;;;4954277;28;20070;-78
2021/12/05 12:04:45;;;;;;;6.80;4.65;;;4.70;99.90;;;;;;4963823;28;20045;-78
2021/12/05 12:07:29;;;;;;;5.82;4.32;;;4.70;99.90;;;;;;4955139;28;20061;-78
2021/12/05 12:10:17;;;;;;;10.02;4.47;;;4.70;99.90;;;;;;4942757;28;20046;-78
2021/12/05 12:12:47;;;;;;;9.30;5.78;;;4.70;99.90;;;;;;4951513;28;20030;-80
2021/12/05 12:15:15;;;;;;;10.15;5.05;;;4.70;99.90;;;;;;4968890;28;20055;-79
2021/12/05 12:17:42;;;;;;;11.00;5.40;;;4.80;99.90;;;;;;4971996;28;20511;-79
2021/12/05 12:20:11;;;;;;;7.45;4.60;;;4.90;99.90;;;;;;4971404;28;20043;-79
2021/12/05 12:22:38;;;;;;;10.88;4.57;;;4.70;99.90;;;;;;4959059;28;20147;-79
2021/12/05 12:25:09;;;;;;;7.60;3.90;;;4.70;99.90;;;;;;4955556;28;20043;-79
2021/12/05 12:27:35;;;;;;;7.45;4.25;;;4.60;99.90;;;;;;4956245;28;20035;-79
2021/12/05 12:30:03;;;;;;;7.30;4.45;;;4.60;99.90;;;;;;4939832;28;20030;-79
2021/12/05 12:32:36;;;;;;;12.77;6.45;;;4.60;99.90;;;;;;4940270;28;20427;-80
2021/12/05 12:35:09;;;;;;;9.77;5.40;;;4.60;99.90;;;;;;4956412;28;20141;-80
2021/12/05 12:37:56;;;;;;;11.32;4.70;;;4.60;99.90;;;;;;4953436;28;20071;-80
2021/12/05 12:40:42;;;;;;;6.40;4.43;;;4.60;99.90;;;;;;4945526;29;20066;-80
2021/12/05 12:43:29;;;;;;;7.18;4.72;;;4.60;99.90;;;;;;4970345;28;20377;-80
2021/12/05 12:45:55;;;;;;;6.32;4.20;;;5.10;99.90;;;;;;4972189;28;20047;-80
2021/12/05 12:48:28;;;;;;;7.40;4.65;;;4.60;99.90;;;;;;4956394;28;20065;-81
2021/12/05 12:50:53;;;;;;;;;;;4.60;99.90;;;;;;4972076;28;20047;-79
2021/12/05 12:53:29;;;;;;;11.30;4.90;;;5.00;99.90;;;;;;4955644;28;19948;-81
2021/12/05 12:55:58;;;;;;;4.85;4.35;;;4.80;99.90;;;;;;4957758;28;20047;-80
2021/12/05 12:58:42;;;;;;;7.07;5.05;;;4.70;99.90;;;;;;4978818;28;20047;-78
2021/12/05 13:02:15;;;;;;;9.18;4.60;;;5.10;99.90;;;;;;4977950;28;20063;-79
2021/12/05 13:05:02;;;;;;;10.82;4.70;;;4.80;99.90;;;;;;4948377;28;20540;-78
2021/12/05 13:10:27;;;;;;;9.18;4.03;;;5.20;99.90;;;;;;4971615;28;20155;-78
2021/12/05 13:13:05;;;;;;;7.53;4.60;;;4.80;99.90;;;;;;4955669;28;20046;-82
2021/12/05 13:15:57;;;;;;;5.20;4.50;;;4.80;99.90;;;;;;4969689;28;20063;-81
2021/12/05 13:18:34;;;;;;;6.13;3.97;;;4.80;99.90;;;;;;4949809;29;20448;-82
2021/12/05 13:21:11;;;;;;;10.77;4.32;;;4.70;99.90;;;;;;4968710;28;20999;-84
2021/12/05 13:23:41;;;;;;;6.22;4.13;;;4.80;99.90;;;;;;4955389;28;20042;-83
2021/12/05 13:26:51;;;;;;;5.78;4.45;;;4.70;99.90;;;;;;4971131;28;20070;-83
2021/12/05 13:29:25;;;;;;;9.98;4.40;;;4.70;99.90;;;;;;4953613;28;20049;-81
2021/12/05 13:31:54;;;;;;;6.00;4.60;;;4.80;99.90;;;;;;4953892;28;20524;-84
2021/12/05 13:34:34;;;;;;;10.73;4.38;;;4.70;99.90;;;;;;4951772;28;20138;-84
2021/12/05 13:37:05;;;;;;;9.18;4.90;;;4.80;99.90;;;;;;4947144;28;20126;-84
2021/12/05 13:39:52;;;;;;;9.23;4.13;;;4.80;99.90;;;;;;4973544;28;20597;-84
2021/12/05 13:42:22;;;;;;;8.80;4.85;;;4.70;99.90;;;;;;4946469;28;20047;-84
2021/12/05 13:45:04;;;;;;;5.63;4.15;;;4.80;99.90;;;;;;4947432;28;20047;-84
2021/12/05 13:47:40;;;;;;;5.88;4.28;;;4.80;99.90;;;;;;4951956;28;20578;-84
2021/12/05 13:50:18;;;;;;;5.65;4.13;;;4.70;99.90;;;;;;4966345;28;20130;-84
2021/12/05 13:52:45;;;;;;;6.53;4.97;;;4.70;99.90;;;;;;4948954;28;20118;-84
2021/12/05 13:55:35;;;;;;;7.78;4.40;;;4.70;99.90;;;;;;4952320;28;20049;-86
2021/12/05 13:58:21;;;;;;;8.50;4.95;;;4.70;99.90;;;;;;4951531;28;20177;-86
2021/12/05 14:00:59;;;;;;;8.43;4.97;;;4.70;99.90;;;;;;4940652;28;20045;-87
2021/12/05 14:03:37;;;;;;;9.38;4.55;;;4.60;99.90;;;;;;4950595;28;20105;-87
2021/12/05 14:06:03;;;;;;;8.60;5.65;;;4.60;99.90;;;;;;4950991;28;20047;-86
2021/12/05 14:08:30;;;;;;;7.75;5.03;;;4.60;99.90;;;;;;4951144;28;20065;-87
2021/12/05 14:10:55;;;;;;;9.52;4.95;;;4.60;99.90;;;;;;4935450;28;20407;-86
2021/12/05 14:13:21;;;;;;;6.03;4.85;;;4.60;99.90;;;;;;4935070;28;20070;-86
2021/12/05 14:15:58;;;;;;;7.70;5.05;;;4.50;99.90;;;;;;4949775;28;20085;-86
2021/12/05 14:18:24;;;;;;;10.27;5.43;;;4.50;99.90;;;;;;4966714;28;20091;-85
2021/12/05 14:20:50;;;;;;;9.45;5.25;;;4.50;99.90;;;;;;4951314;28;20043;-85
2021/12/05 14:23:22;;;;;;;6.50;4.93;;;4.60;99.90;;;;;;4948275;28;20524;-85
2021/12/05 14:25:48;;;;;;;6.05;5.00;;;4.50;99.90;;;;;;4950234;28;20047;-86
2021/12/05 14:28:14;;;;;;;7.93;4.93;;;5.20;99.90;;;;;;4918307;28;20045;-87
2021/12/05 14:30:40;;;;;;;10.35;6.13;;;4.40;99.90;;;;;;4968035;28;20101;-87
2021/12/05 14:33:06;;;;;;;8.98;6.30;;;4.40;99.90;;;;;;4915356;28;20062;-86
2021/12/05 14:35:35;;;;;;;9.02;6.38;;;4.40;99.90;;;;;;4937700;28;20536;-86
2021/12/05 14:38:02;;;;;;;10.38;6.53;;;4.40;99.90;;;;;;4938044;28;20053;-85
2021/12/05 14:40:30;;;;;;;8.57;5.70;;;4.40;99.90;;;;;;4938900;28;20170;-85
2021/12/05 14:43:03;;;;;;;8.07;5.78;;;4.40;99.90;;;;;;4954673;28;20459;-86
2021/12/05 14:45:32;;;;;;;17.33;6.60;;;4.40;99.90;;;;;;4932172;28;20580;-85
2021/12/05 14:48:02;;;;;;;19.30;7.22;;;4.40;99.90;;;;;;4959288;28;20054;-85
2021/12/05 14:50:32;;;;;;;8.55;6.40;;;4.40;99.90;;;;;;4929509;28;20043;-86
2021/12/05 14:53:05;;;;;;;9.90;6.72;;;4.50;99.90;;;;;;4944110;28;20974;-86
2021/12/05 14:55:33;;;;;;;15.90;8.15;;;4.40;99.90;;;;;;4960478;28;20046;-87
2021/12/05 14:58:02;;;;;;;18.88;9.73;;;4.80;99.90;;;;;;4943565;28;20051;-86
2021/12/05 15:00:33;;;;;;;14.07;8.52;;;4.40;99.90;;;;;;4943132;28;20481;-85
2021/12/05 15:03:23;;;;;;;11.57;7.63;;;4.50;99.90;;;;;;4943426;28;20575;-85
2021/12/05 15:05:52;;;;;;;13.38;7.53;;;4.40;99.90;;;;;;4944382;28;20074;-86
2021/12/05 15:08:20;;;;;;;13.27;8.43;;;4.50;99.90;;;;;;4943494;28;20403;-84
2021/12/05 15:10:51;;;;;;;17.92;7.80;;;4.40;99.90;;;;;;4943866;28;20108;-84
2021/12/05 15:13:17;;;;;;;12.45;8.77;;;4.40;99.90;;;;;;4944111;28;20053;-85
2021/12/05 15:15:43;;;;;;;14.25;8.65;;;4.40;99.90;;;;;;4942561;28;20138;-85
2021/12/05 15:18:28;;;;;;;17.85;8.43;;;4.40;99.90;;;;;;4942998;28;20110;-85
2021/12/05 15:20:56;;;;;;;12.02;7.47;;;4.40;99.90;;;;;;4946508;28;20070;-86
2021/12/05 15:23:28;;;;;;;15.70;8.23;;;4.70;99.90;;;;;;4934063;28;20046;-86
2021/12/05 15:25:54;;;;;;;13.65;8.00;;;4.30;99.90;;;;;;4965974;28;20047;-86
2021/12/05 15:28:22;;;;;;;15.48;7.70;;;4.30;99.90;;;;;;4967315;28;20511;-86
2021/12/05 15:30:48;;;;;;;11.75;7.80;;;5.20;99.90;;;;;;4936269;28;20043;-88
2021/12/05 15:33:20;;;;;;;11.68;7.45;;;4.30;99.90;;;;;;4968757;28;20396;-85
2021/12/05 15:35:48;;;;;;;14.80;8.23;;;4.30;99.90;;;;;;4962152;28;20124;-85
2021/12/05 15:38:21;;;;;;;16.45;8.75;;;4.30;99.90;;;;;;4965339;28;20527;-84
2021/12/05 15:40:49;;;;;;;14.10;8.35;;;4.30;99.90;;;;;;4948963;28;20042;-84
2021/12/05 15:43:20;;;;;;;16.25;9.05;;;4.30;99.90;;;;;;4948798;28;20042;-87
2021/12/05 15:45:48;;;;;;;14.18;9.00;;;4.30;99.90;;;;;;4949447;28;20035;-88
2021/12/05 15:48:34;;;;;;;17.67;9.88;;;4.30;99.90;;;;;;4963380;28;20101;-90
2021/12/05 15:51:02;;;;;;;17.67;10.23;;;4.20;99.90;;;;;;4946854;28;20048;-89
2021/12/05 15:53:31;;;;;;;20.48;10.38;;;4.20;99.90;;;;;;4948952;28;20616;-89
2021/12/05 15:56:00;;;;;;;16.92;10.65;;;4.90;99.90;;;;;;4948434;28;20578;-91
2021/12/05 15:59:06;;;;;;;20.08;9.95;;;5.20;99.90;;;;;;4948373;28;20046;-91
2021/12/05 16:01:33;;;;;;;17.85;10.98;;;4.30;99.90;;;;;;4948693;28;20047;-91
2021/12/05 16:04:02;;;;;;;19.80;10.85;;;4.20;99.90;;;;;;4948913;28;20031;-92
2021/12/05 16:06:39;;;;;;;16.55;11.02;;;4.20;99.90;;;;;;4948489;28;20067;-91
2021/12/05 16:09:21;;;;;;;17.25;11.48;;;4.20;99.90;;;;;;4964060;28;20480;-89
2021/12/05 16:11:50;;;;;;;15.73;10.95;;;4.20;99.90;;;;;;4949659;28;20388;-91
2021/12/05 16:14:35;;;;;;;23.38;10.93;;;4.70;99.90;;;;;;4961776;28;20043;-88
2021/12/05 16:17:03;;;;;;;14.50;9.85;;;4.20;99.90;;;;;;4949267;28;20118;-90
2021/12/05 16:19:31;;;;;;;16.92;10.57;;;4.20;99.90;;;;;;4949037;28;20138;-89
2021/12/05 16:21:57;;;;;;;17.13;11.57;;;4.30;99.90;;;;;;4947487;28;20113;-89
2021/12/05 16:24:25;;;;;;;17.13;10.82;;;4.20;99.90;;;;;;4947196;28;20716;-92
2021/12/05 16:26:52;;;;;;;19.23;10.77;;;4.20;99.90;;;;;;4897490;28;20034;-90
2021/12/05 16:29:24;;;;;;;21.05;11.65;;;4.40;99.90;;;;;;4928063;28;20657;-90
2021/12/05 16:31:55;;;;;;;19.67;9.82;;;4.20;99.90;;;;;;4942290;28;20453;-91
2021/12/05 16:34:28;;;;;;;14.50;10.52;;;4.90;99.90;;;;;;4958897;28;20121;-90
2021/12/05 16:37:00;;;;;;;17.67;11.02;;;4.60;99.90;;;;;;4960311;28;20043;-92
2021/12/05 16:39:42;;;;;;;16.73;11.00;;;4.10;99.90;;;;;;4965311;28;20181;-91
2021/12/05 16:42:21;;;;;;;15.88;10.15;;;4.20;99.90;;;;;;4952948;28;20066;-93
2021/12/05 16:44:53;;;;;;;19.88;11.95;;;4.20;99.90;;;;;;4956443;28;20042;-93
2021/12/05 16:47:22;;;;;;;18.40;11.55;;;4.60;99.90;;;;;;4958123;28;20039;-93
2021/12/05 16:49:50;;;;;;;16.63;11.35;;;4.90;99.90;;;;;;4952966;28;20042;-92
2021/12/05 16:52:31;;;;;;;19.75;11.45;;;4.10;99.90;;;;;;4955356;28;20043;-87
2021/12/05 16:55:03;;;;;;;17.83;10.90;;;4.20;99.90;;;;;;4957067;28;20126;-93
2021/12/05 16:57:40;;;;;;;21.67;12.43;;;4.90;99.90;;;;;;4970879;28;20171;-93
2021/12/05 17:00:15;;;;;;;21.70;12.85;;;4.10;99.90;;;;;;4969705;28;20045;-90
2021/12/05 17:02:53;;;;;;;20.67;12.73;;;4.10;99.90;;;;;;4954745;28;20038;-94
2021/12/05 17:05:27;;;;;;;21.20;12.35;;;4.30;99.90;;;;;;4955516;28;20129;-96
2021/12/05 17:08:14;;;;;;;19.60;12.68;;;4.10;99.90;;;;;;4974181;28;20070;-95
2021/12/05 17:10:46;;;;;;;25.33;13.10;;;4.10;99.90;;;;;;4956803;28;20129;-94
2021/12/05 17:13:20;;;;;;;26.00;13.65;;;4.10;99.90;;;;;;4957682;28;20451;-91
2021/12/05 17:15:53;;;;;;;23.30;12.65;;;4.30;99.90;;;;;;4969132;28;20065;-90
2021/12/05 17:18:40;;;;;;;26.30;13.23;;;4.10;99.90;;;;;;4951818;28;20054;-92
2021/12/05 17:21:18;;;;;;;23.95;13.38;;;4.20;99.90;;;;;;4967402;28;20132;-91
2021/12/05 17:23:48;;;;;;;21.90;13.02;;;4.20;99.90;;;;;;4952756;28;20528;-92
2021/12/05 17:26:24;;;;;;;23.95;13.70;;;4.10;99.90;;;;;;4954103;28;20043;-93
2021/12/05 17:28:55;;;;;;;28.30;14.35;;;4.10;99.90;;;;;;4952185;28;20489;-91
2021/12/05 17:31:31;;;;;;;21.60;12.43;;;4.10;99.90;;;;;;4968389;28;20039;-90
2021/12/05 17:34:02;;;;;;;20.88;13.23;;;4.10;99.90;;;;;;4953463;28;20121;-92
2021/12/05 17:36:28;;;;;;;23.85;13.40;;;4.10;99.90;;;;;;4951980;28;20035;-89
2021/12/05 17:39:07;;;;;;;26.27;12.50;;;4.80;99.90;;;;;;4951806;28;20046;-90
2021/12/05 17:41:33;;;;;;;24.52;13.48;;;4.00;99.90;;;;;;4966954;28;20154;-90
2021/12/05 17:44:02;;;;;;;23.67;14.57;;;4.00;99.90;;;;;;4952573;28;20034;-90
2021/12/05 17:46:30;;;;;;;22.67;12.55;;;4.30;99.90;;;;;;4952475;28;20047;-91
2021/12/05 17:48:57;;;;;;;29.17;13.73;;;5.00;99.90;;;;;;4952171;28;20046;-90
2021/12/05 17:51:31;;;;;;;27.38;14.15;;;4.00;99.90;;;;;;4950683;28;20101;-89
2021/12/05 17:53:58;;;;;;;24.10;14.27;;;4.70;99.90;;;;;;4951489;28;20097;-90
2021/12/05 17:56:36;;;;;;;25.10;14.13;;;4.00;99.90;;;;;;4968315;28;20042;-90
2021/12/05 17:59:12;;;;;;;27.65;14.85;;;4.00;99.90;;;;;;4947884;28;20062;-89
2021/12/05 18:04:24;;;;;;;37.63;17.02;;;4.50;99.90;;;;;;4988615;28;20049;-90
2021/12/05 18:06:49;;;;;;;31.38;18.92;;;4.00;99.90;;;;;;4965231;28;20042;-89
2021/12/05 18:09:15;;;;;;;37.83;19.25;;;4.70;99.90;;;;;;4966537;28;20102;-92
2021/12/05 18:11:42;;;;;;;42.78;20.58;;;4.00;99.90;;;;;;4987062;28;20042;-91
2021/12/05 18:14:08;;;;;;;43.67;21.92;;;4.00;99.90;;;;;;4940370;28;20042;-91
2021/12/05 18:16:34;;;;;;;40.35;22.13;;;4.00;99.90;;;;;;4966203;28;20419;-91
2021/12/05 18:19:13;;;;;;;39.65;21.20;;;4.00;99.90;;;;;;4948535;28;20077;-90